sensor_id;sensor_type;location;lat;lon;timestamp;pressure;altitude;pressure_sealevel;temperature;humidity
70954;BME280;58618;47.490;8.736;2023-04-01T00:01:30;95594.28;;;7.59;100.00
70954;BME280;58618;47.490;8.736;2023-04-01T00:04:17;95601.34;;;7.49;100.00
70954;BME280;58618;47.490;8.736;2023-04-01T00:07:04;95596.09;;;7.59;100.00
70954;BME280;58618;47.490;8.736;2023-04-01T00:09:53;95597.34;;;7.61;100.00
70954;BME280;58618;47.490;8.736;2023-04-01T00:12:41;95592.97;;;7.62;100.00
70954;BME280;58618;47.490;8.736;2023-04-01T00:15:28;95596.31;;;7.62;100.00
70954;BME280;58618;47.490;8.736;2023-04-01T00:18:15;95603.41;;;7.71;100.00
70954;BME280;58618;47.490;8.736;2023-04-01T00:21:03;95605.47;;;7.69;100.00
70954;BME280;58618;47.490;8.736;2023-04-01T00:23:50;95602.13;;;7.68;100.00
70954;BME280;58618;47.490;8.736;2023-04-01T00:26:39;95606.22;;;7.69;100.00
70954;BME280;58618;47.490;8.736;2023-04-01T00:29:28;95611.69;;;7.62;100.00
70954;BME280;58618;47.490;8.736;2023-04-01T00:32:16;95605.38;;;7.55;100.00
70954;BME280;58618;47.490;8.736;2023-04-01T00:35:04;95614.75;;;7.41;100.00
70954;BME280;58618;47.490;8.736;2023-04-01T00:37:52;95612.25;;;7.36;100.00
70954;BME280;58618;47.490;8.736;2023-04-01T00:40:41;95617.28;;;7.46;100.00
70954;BME280;58618;47.490;8.736;2023-04-01T00:43:30;95606.03;;;7.42;100.00
70954;BME280;58618;47.490;8.736;2023-04-01T00:46:18;95611.81;;;7.52;100.00
70954;BME280;58618;47.490;8.736;2023-04-01T00:49:06;95602.31;;;7.53;100.00
70954;BME280;58618;47.490;8.736;2023-04-01T00:51:55;95614.63;;;7.56;100.00
70954;BME280;58618;47.490;8.736;2023-04-01T00:54:46;95619.91;;;7.64;100.00
70954;BME280;58618;47.490;8.736;2023-04-01T00:57:35;95621.69;;;7.64;100.00
70954;BME280;58618;47.490;8.736;2023-04-01T01:00:24;95620.53;;;7.75;100.00
70954;BME280;58618;47.490;8.736;2023-04-01T01:03:12;95609.84;;;7.68;100.00
70954;BME280;58618;47.490;8.736;2023-04-01T01:06:08;95617.47;;;7.73;100.00
70954;BME280;58618;47.490;8.736;2023-04-01T01:09:06;95605.13;;;7.75;100.00
70954;BME280;58618;47.490;8.736;2023-04-01T01:12:04;95603.06;;;7.77;100.00
70954;BME280;58618;47.490;8.736;2023-04-01T01:15:02;95601.03;;;7.74;100.00
70954;BME280;58618;47.490;8.736;2023-04-01T01:17:57;95594.31;;;7.78;98.55
70954;BME280;58618;47.490;8.736;2023-04-01T01:21:14;95597.94;;;7.77;99.13
70954;BME280;58618;47.490;8.736;2023-04-01T01:24:21;95592.31;;;7.75;100.00
70954;BME280;58618;47.490;8.736;2023-04-01T01:27:16;95601.53;;;7.76;100.00
70954;BME280;58618;47.490;8.736;2023-04-01T01:30:17;95596.94;;;7.73;100.00
70954;BME280;58618;47.490;8.736;2023-04-01T01:33:24;95595.31;;;7.82;98.15
70954;BME280;58618;47.490;8.736;2023-04-01T01:36:14;95600.50;;;7.77;100.00
70954;BME280;58618;47.490;8.736;2023-04-01T01:39:03;95601.59;;;7.71;99.07
70954;BME280;58618;47.490;8.736;2023-04-01T01:41:52;95600.53;;;7.72;99.38
70954;BME280;58618;47.490;8.736;2023-04-01T01:44:42;95607.34;;;7.63;100.00
70954;BME280;58618;47.490;8.736;2023-04-01T01:47:32;95595.19;;;7.69;100.00
70954;BME280;58618;47.490;8.736;2023-04-01T01:50:21;95583.19;;;7.64;100.00
70954;BME280;58618;47.490;8.736;2023-04-01T01:53:12;95589.63;;;7.61;100.00
70954;BME280;58618;47.490;8.736;2023-04-01T01:56:00;95581.66;;;7.63;100.00
70954;BME280;58618;47.490;8.736;2023-04-01T01:58:49;95571.06;;;7.70;100.00
70954;BME280;58618;47.490;8.736;2023-04-01T02:01:41;95567.31;;;7.62;100.00
70954;BME280;58618;47.490;8.736;2023-04-01T02:04:30;95569.06;;;7.67;100.00
70954;BME280;58618;47.490;8.736;2023-04-01T02:07:21;95567.38;;;7.57;100.00
70954;BME280;58618;47.490;8.736;2023-04-01T02:10:12;95578.41;;;7.57;100.00
70954;BME280;58618;47.490;8.736;2023-04-01T02:13:02;95580.13;;;7.62;100.00
70954;BME280;58618;47.490;8.736;2023-04-01T02:15:54;95573.50;;;7.61;100.00
70954;BME280;58618;47.490;8.736;2023-04-01T02:18:47;95576.13;;;7.56;100.00
70954;BME280;58618;47.490;8.736;2023-04-01T02:21:35;95571.00;;;7.56;100.00
70954;BME280;58618;47.490;8.736;2023-04-01T02:24:25;95564.28;;;7.60;99.13
70954;BME280;58618;47.490;8.736;2023-04-01T02:27:14;95571.75;;;7.56;100.00
70954;BME280;58618;47.490;8.736;2023-04-01T02:30:02;95573.56;;;7.56;99.26
70954;BME280;58618;47.490;8.736;2023-04-01T02:32:50;95557.09;;;7.57;99.45
70954;BME280;58618;47.490;8.736;2023-04-01T02:35:38;95564.34;;;7.55;97.78
70954;BME280;58618;47.490;8.736;2023-04-01T02:38:26;95556.91;;;7.53;98.24
70954;BME280;58618;47.490;8.736;2023-04-01T02:41:13;95565.22;;;7.45;96.11
70954;BME280;58618;47.490;8.736;2023-04-01T02:44:02;95561.53;;;7.51;96.68
70954;BME280;58618;47.490;8.736;2023-04-01T02:46:49;95574.59;;;7.55;97.04
70954;BME280;58618;47.490;8.736;2023-04-01T02:49:36;95569.09;;;7.61;95.86
70954;BME280;58618;47.490;8.736;2023-04-01T02:52:24;95563.00;;;7.57;96.63
70954;BME280;58618;47.490;8.736;2023-04-01T02:55:11;95571.91;;;7.65;96.69
70954;BME280;58618;47.490;8.736;2023-04-01T02:57:58;95574.16;;;7.48;100.00
70954;BME280;58618;47.490;8.736;2023-04-01T03:00:47;95564.59;;;7.35;100.00
70954;BME280;58618;47.490;8.736;2023-04-01T03:03:34;95562.59;;;7.27;100.00
70954;BME280;58618;47.490;8.736;2023-04-01T03:06:22;95567.19;;;7.30;100.00
70954;BME280;58618;47.490;8.736;2023-04-01T03:09:09;95565.66;;;7.29;100.00
70954;BME280;58618;47.490;8.736;2023-04-01T03:11:56;95550.53;;;7.27;100.00
70954;BME280;58618;47.490;8.736;2023-04-01T03:14:44;95559.53;;;7.25;99.25
70954;BME280;58618;47.490;8.736;2023-04-01T03:17:32;95559.59;;;7.19;98.86
70954;BME280;58618;47.490;8.736;2023-04-01T03:20:20;95568.81;;;7.20;98.99
70954;BME280;58618;47.490;8.736;2023-04-01T03:23:07;95565.78;;;7.18;97.80
70954;BME280;58618;47.490;8.736;2023-04-01T03:25:54;95562.84;;;7.06;100.00
70954;BME280;58618;47.490;8.736;2023-04-01T03:28:42;95559.22;;;7.07;100.00
70954;BME280;58618;47.490;8.736;2023-04-01T03:31:29;95557.16;;;7.09;97.40
70954;BME280;58618;47.490;8.736;2023-04-01T03:34:18;95547.56;;;6.96;98.74
70954;BME280;58618;47.490;8.736;2023-04-01T03:37:05;95548.53;;;7.00;100.00
70954;BME280;58618;47.490;8.736;2023-04-01T03:39:52;95544.94;;;7.01;98.76
70954;BME280;58618;47.490;8.736;2023-04-01T03:42:40;95541.88;;;6.99;97.20
70954;BME280;58618;47.490;8.736;2023-04-01T03:45:27;95539.81;;;7.01;98.94
70954;BME280;58618;47.490;8.736;2023-04-01T03:48:15;95526.81;;;6.93;100.00
70954;BME280;58618;47.490;8.736;2023-04-01T03:51:07;95524.47;;;6.96;98.16
70954;BME280;58618;47.490;8.736;2023-04-01T03:53:55;95540.56;;;7.02;99.14
70954;BME280;58618;47.490;8.736;2023-04-01T03:56:42;95551.59;;;7.02;98.54
70954;BME280;58618;47.490;8.736;2023-04-01T03:59:29;95555.72;;;6.98;98.84
70954;BME280;58618;47.490;8.736;2023-04-01T04:02:17;95542.84;;;7.03;96.74
70954;BME280;58618;47.490;8.736;2023-04-01T04:05:05;95558.22;;;7.03;98.43
70954;BME280;58618;47.490;8.736;2023-04-01T04:07:54;95562.88;;;7.01;98.05
70954;BME280;58618;47.490;8.736;2023-04-01T04:10:42;95562.84;;;7.06;96.49
70954;BME280;58618;47.490;8.736;2023-04-01T04:13:29;95561.75;;;7.12;100.00
70954;BME280;58618;47.490;8.736;2023-04-01T04:16:17;95579.75;;;7.07;100.00
70954;BME280;58618;47.490;8.736;2023-04-01T04:19:05;95574.16;;;7.00;100.00
70954;BME280;58618;47.490;8.736;2023-04-01T04:21:52;95567.63;;;6.89;100.00
70954;BME280;58618;47.490;8.736;2023-04-01T04:24:40;95568.69;;;6.83;100.00
70954;BME280;58618;47.490;8.736;2023-04-01T04:27:28;95562.03;;;6.82;100.00
70954;BME280;58618;47.490;8.736;2023-04-01T04:30:16;95570.28;;;6.79;100.00
70954;BME280;58618;47.490;8.736;2023-04-01T04:33:03;95565.19;;;6.74;100.00
70954;BME280;58618;47.490;8.736;2023-04-01T04:35:51;95570.78;;;6.81;100.00
70954;BME280;58618;47.490;8.736;2023-04-01T04:38:38;95558.22;;;6.79;100.00
70954;BME280;58618;47.490;8.736;2023-04-01T04:41:27;95570.78;;;6.81;100.00
70954;BME280;58618;47.490;8.736;2023-04-01T04:44:14;95569.72;;;6.82;100.00
70954;BME280;58618;47.490;8.736;2023-04-01T04:47:02;95570.22;;;6.84;100.00
70954;BME280;58618;47.490;8.736;2023-04-01T04:49:49;95563.03;;;6.86;100.00
70954;BME280;58618;47.490;8.736;2023-04-01T04:52:36;95571.44;;;6.92;100.00
70954;BME280;58618;47.490;8.736;2023-04-01T04:55:24;95573.72;;;6.93;100.00
70954;BME280;58618;47.490;8.736;2023-04-01T04:58:12;95583.44;;;6.96;100.00
70954;BME280;58618;47.490;8.736;2023-04-01T05:01:05;95585.97;;;7.01;100.00
70954;BME280;58618;47.490;8.736;2023-04-01T05:03:53;95578.31;;;6.96;100.00
70954;BME280;58618;47.490;8.736;2023-04-01T05:06:41;95590.59;;;6.99;100.00
70954;BME280;58618;47.490;8.736;2023-04-01T05:09:29;95580.81;;;7.01;100.00
70954;BME280;58618;47.490;8.736;2023-04-01T05:12:17;95596.75;;;6.98;100.00
70954;BME280;58618;47.490;8.736;2023-04-01T05:15:06;95585.97;;;7.01;100.00
70954;BME280;58618;47.490;8.736;2023-04-01T05:17:54;95608.00;;;7.02;100.00
70954;BME280;58618;47.490;8.736;2023-04-01T05:20:46;95608.53;;;6.99;100.00
70954;BME280;58618;47.490;8.736;2023-04-01T05:23:33;95605.91;;;7.04;100.00
70954;BME280;58618;47.490;8.736;2023-04-01T05:26:20;95610.50;;;7.07;100.00
70954;BME280;58618;47.490;8.736;2023-04-01T05:29:08;95607.94;;;7.07;100.00
70954;BME280;58618;47.490;8.736;2023-04-01T05:31:56;95602.31;;;7.05;100.00
70954;BME280;58618;47.490;8.736;2023-04-01T05:34:44;95602.88;;;7.02;100.00
70954;BME280;58618;47.490;8.736;2023-04-01T05:37:33;95609.97;;;7.10;99.59
70954;BME280;58618;47.490;8.736;2023-04-01T05:40:20;95608.97;;;7.06;100.00
70954;BME280;58618;47.490;8.736;2023-04-01T05:43:08;95615.63;;;7.07;100.00
70954;BME280;58618;47.490;8.736;2023-04-01T05:45:55;95615.19;;;7.00;100.00
70954;BME280;58618;47.490;8.736;2023-04-01T05:48:45;95618.56;;;6.96;100.00
70954;BME280;58618;47.490;8.736;2023-04-01T05:51:32;95626.53;;;6.94;100.00
70954;BME280;58618;47.490;8.736;2023-04-01T05:54:20;95625.53;;;6.90;100.00
70954;BME280;58618;47.490;8.736;2023-04-01T05:57:07;95622.94;;;6.95;100.00
70954;BME280;58618;47.490;8.736;2023-04-01T05:59:54;95620.81;;;7.02;100.00
70954;BME280;58618;47.490;8.736;2023-04-01T06:02:42;95620.09;;;6.97;100.00
70954;BME280;58618;47.490;8.736;2023-04-01T06:05:38;95618.47;;;7.06;100.00
70954;BME280;58618;47.490;8.736;2023-04-01T06:08:25;95622.69;;;7.20;100.00
70954;BME280;58618;47.490;8.736;2023-04-01T06:11:22;95630.16;;;7.41;100.00
70954;BME280;58618;47.490;8.736;2023-04-01T06:14:22;95634.31;;;7.37;100.00
70954;BME280;58618;47.490;8.736;2023-04-01T06:17:23;95610.31;;;7.28;100.00
70954;BME280;58618;47.490;8.736;2023-04-01T06:20:21;95606.16;;;7.32;100.00
70954;BME280;58618;47.490;8.736;2023-04-01T06:23:28;95600.78;;;7.52;100.00
70954;BME280;58618;47.490;8.736;2023-04-01T06:26:29;95607.00;;;7.70;100.00
70954;BME280;58618;47.490;8.736;2023-04-01T06:29:40;95600.44;;;7.82;100.00
70954;BME280;58618;47.490;8.736;2023-04-01T06:32:40;95610.66;;;8.25;99.58
70954;BME280;58618;47.490;8.736;2023-04-01T06:35:44;95611.00;;;8.37;99.32
70954;BME280;58618;47.490;8.736;2023-04-01T06:45:14;95602.44;;;8.41;100.00
70954;BME280;58618;47.490;8.736;2023-04-01T06:48:19;95581.03;;;8.78;97.95
70954;BME280;58618;47.490;8.736;2023-04-01T06:51:21;95594.69;;;8.93;96.95
70954;BME280;58618;47.490;8.736;2023-04-01T06:54:16;95578.59;;;9.42;94.05
70954;BME280;58618;47.490;8.736;2023-04-01T06:57:12;95582.03;;;9.78;89.73
70954;BME280;58618;47.490;8.736;2023-04-01T07:00:12;95579.94;;;9.53;93.59
70954;BME280;58618;47.490;8.736;2023-04-01T07:03:06;95585.75;;;9.58;94.30
70954;BME280;58618;47.490;8.736;2023-04-01T07:05:59;95585.44;;;9.73;92.09
70954;BME280;58618;47.490;8.736;2023-04-01T07:08:50;95596.03;;;9.58;91.19
70954;BME280;58618;47.490;8.736;2023-04-01T07:11:40;95578.63;;;9.55;87.94
70954;BME280;58618;47.490;8.736;2023-04-01T07:14:31;95590.06;;;9.49;91.37
70954;BME280;58618;47.490;8.736;2023-04-01T07:17:23;95590.34;;;9.20;91.32
70954;BME280;58618;47.490;8.736;2023-04-01T07:20:19;95594.44;;;9.08;94.65
70954;BME280;58618;47.490;8.736;2023-04-01T07:23:15;95600.88;;;8.92;97.47
70954;BME280;58618;47.490;8.736;2023-04-01T07:26:11;95598.22;;;8.97;93.50
70954;BME280;58618;47.490;8.736;2023-04-01T07:29:09;95594.22;;;8.90;92.82
70954;BME280;58618;47.490;8.736;2023-04-01T07:32:14;95611.03;;;8.83;97.23
70954;BME280;58618;47.490;8.736;2023-04-01T07:35:13;95614.97;;;8.80;95.87
70954;BME280;58618;47.490;8.736;2023-04-01T07:38:15;95616.69;;;8.85;95.14
70954;BME280;58618;47.490;8.736;2023-04-01T07:41:10;95628.41;;;8.91;98.17
70954;BME280;58618;47.490;8.736;2023-04-01T07:44:10;95627.81;;;8.80;98.72
70954;BME280;58618;47.490;8.736;2023-04-01T07:47:20;95618.41;;;8.89;97.67
70954;BME280;58618;47.490;8.736;2023-04-01T07:50:18;95630.44;;;9.08;97.15
70954;BME280;58618;47.490;8.736;2023-04-01T07:53:16;95625.47;;;8.98;98.76
70954;BME280;58618;47.490;8.736;2023-04-01T07:56:08;95632.63;;;8.68;100.00
70954;BME280;58618;47.490;8.736;2023-04-01T07:59:05;95627.91;;;8.89;96.14
70954;BME280;58618;47.490;8.736;2023-04-01T08:02:04;95638.41;;;8.93;99.08
70954;BME280;58618;47.490;8.736;2023-04-01T08:05:04;95650.38;;;8.83;100.00
70954;BME280;58618;47.490;8.736;2023-04-01T08:08:03;95640.09;;;8.83;100.00
70954;BME280;58618;47.490;8.736;2023-04-01T08:10:57;95621.47;;;8.92;99.86
70954;BME280;58618;47.490;8.736;2023-04-01T08:13:54;95629.25;;;8.86;100.00
70954;BME280;58618;47.490;8.736;2023-04-01T08:16:51;95619.13;;;8.76;100.00
70954;BME280;58618;47.490;8.736;2023-04-01T08:19:55;95642.53;;;8.61;100.00
70954;BME280;58618;47.490;8.736;2023-04-01T08:22:49;95648.47;;;8.75;100.00
70954;BME280;58618;47.490;8.736;2023-04-01T08:25:39;95650.91;;;8.48;100.00
70954;BME280;58618;47.490;8.736;2023-04-01T08:28:30;95644.09;;;8.57;100.00
70954;BME280;58618;47.490;8.736;2023-04-01T08:31:24;95647.50;;;8.71;100.00
70954;BME280;58618;47.490;8.736;2023-04-01T08:34:15;95638.22;;;8.38;100.00
70954;BME280;58618;47.490;8.736;2023-04-01T08:37:08;95652.94;;;8.51;100.00
70954;BME280;58618;47.490;8.736;2023-04-01T08:40:02;95646.13;;;8.60;100.00
70954;BME280;58618;47.490;8.736;2023-04-01T08:43:05;95644.03;;;8.62;100.00
70954;BME280;58618;47.490;8.736;2023-04-01T08:46:09;95644.97;;;8.34;100.00
70954;BME280;58618;47.490;8.736;2023-04-01T08:49:06;95645.00;;;8.29;100.00
70954;BME280;58618;47.490;8.736;2023-04-01T08:52:11;95638.41;;;8.41;100.00
70954;BME280;58618;47.490;8.736;2023-04-01T08:55:26;95643.94;;;8.35;100.00
70954;BME280;58618;47.490;8.736;2023-04-01T08:58:33;95653.50;;;8.29;100.00
70954;BME280;58618;47.490;8.736;2023-04-01T09:01:51;95630.97;;;8.02;100.00
70954;BME280;58618;47.490;8.736;2023-04-01T09:08:33;95649.28;;;8.38;100.00
70954;BME280;58618;47.490;8.736;2023-04-01T09:11:33;95658.75;;;8.19;100.00
70954;BME280;58618;47.490;8.736;2023-04-01T09:14:48;95663.50;;;8.31;100.00
70954;BME280;58618;47.490;8.736;2023-04-01T09:17:55;95662.50;;;8.27;100.00
70954;BME280;58618;47.490;8.736;2023-04-01T09:21:09;95660.00;;;8.22;100.00
70954;BME280;58618;47.490;8.736;2023-04-01T09:24:35;95661.34;;;8.38;100.00
70954;BME280;58618;47.490;8.736;2023-04-01T09:27:29;95647.78;;;8.14;100.00
70954;BME280;58618;47.490;8.736;2023-04-01T09:33:53;95664.72;;;8.52;100.00
70954;BME280;58618;47.490;8.736;2023-04-01T09:37:03;95666.41;;;8.24;100.00
70954;BME280;58618;47.490;8.736;2023-04-01T09:40:15;95655.72;;;8.36;100.00
70954;BME280;58618;47.490;8.736;2023-04-01T09:43:19;95666.22;;;8.39;100.00
70954;BME280;58618;47.490;8.736;2023-04-01T09:46:19;95660.84;;;8.36;100.00
70954;BME280;58618;47.490;8.736;2023-04-01T09:49:33;95657.09;;;8.47;100.00
70954;BME280;58618;47.490;8.736;2023-04-01T09:52:32;95654.72;;;8.69;100.00
70954;BME280;58618;47.490;8.736;2023-04-01T09:55:43;95664.66;;;8.76;100.00
70954;BME280;58618;47.490;8.736;2023-04-01T10:02:23;95642.69;;;9.43;100.00
70954;BME280;58618;47.490;8.736;2023-04-01T10:09:02;95629.41;;;9.91;100.00
70954;BME280;58618;47.490;8.736;2023-04-01T10:12:40;95637.28;;;10.08;97.83
70954;BME280;58618;47.490;8.736;2023-04-01T10:16:03;95639.22;;;10.02;98.84
70954;BME280;58618;47.490;8.736;2023-04-01T10:19:33;95646.25;;;10.24;100.00
70954;BME280;58618;47.490;8.736;2023-04-01T10:22:35;95644.28;;;10.88;92.11
70954;BME280;58618;47.490;8.736;2023-04-01T10:25:53;95632.53;;;10.51;96.07
70954;BME280;58618;47.490;8.736;2023-04-01T10:29:19;95642.31;;;10.63;94.47
70954;BME280;58618;47.490;8.736;2023-04-01T10:32:38;95640.88;;;10.34;98.54
70954;BME280;58618;47.490;8.736;2023-04-01T10:39:29;95642.75;;;10.42;98.98
70954;BME280;58618;47.490;8.736;2023-04-01T10:42:49;95642.88;;;11.04;91.18
70954;BME280;58618;47.490;8.736;2023-04-01T10:49:32;95639.13;;;10.88;94.00
70954;BME280;58618;47.490;8.736;2023-04-01T10:52:45;95633.69;;;11.20;87.63
70954;BME280;58618;47.490;8.736;2023-04-01T10:56:08;95644.97;;;11.02;89.16
70954;BME280;58618;47.490;8.736;2023-04-01T10:59:15;95651.41;;;11.13;91.66
70954;BME280;58618;47.490;8.736;2023-04-01T11:06:02;95636.84;;;11.17;89.60
70954;BME280;58618;47.490;8.736;2023-04-01T11:09:25;95634.06;;;11.36;90.06
70954;BME280;58618;47.490;8.736;2023-04-01T11:16:15;95626.66;;;11.12;86.64
70954;BME280;58618;47.490;8.736;2023-04-01T11:19:34;95633.47;;;11.48;83.66
70954;BME280;58618;47.490;8.736;2023-04-01T11:22:49;95633.47;;;11.39;85.64
70954;BME280;58618;47.490;8.736;2023-04-01T11:25:49;95648.84;;;11.53;83.47
70954;BME280;58618;47.490;8.736;2023-04-01T11:28:59;95624.00;;;11.74;82.91
70954;BME280;58618;47.490;8.736;2023-04-01T11:31:55;95642.00;;;11.17;85.11
70954;BME280;58618;47.490;8.736;2023-04-01T11:34:57;95633.19;;;11.49;86.05
70954;BME280;58618;47.490;8.736;2023-04-01T11:37:54;95640.53;;;11.64;83.04
70954;BME280;58618;47.490;8.736;2023-04-01T11:40:54;95635.22;;;11.61;84.18
70954;BME280;58618;47.490;8.736;2023-04-01T11:43:51;95638.50;;;11.53;83.25
70954;BME280;58618;47.490;8.736;2023-04-01T11:46:48;95629.69;;;11.54;82.17
70954;BME280;58618;47.490;8.736;2023-04-01T11:49:47;95632.97;;;11.28;85.61
70954;BME280;58618;47.490;8.736;2023-04-01T11:53:01;95640.66;;;11.51;86.32
70954;BME280;58618;47.490;8.736;2023-04-01T11:56:01;95651.41;;;11.13;87.16
70954;BME280;58618;47.490;8.736;2023-04-01T11:59:12;95639.91;;;11.19;87.17
70954;BME280;58618;47.490;8.736;2023-04-01T12:02:10;95638.88;;;10.98;86.42
70954;BME280;58618;47.490;8.736;2023-04-01T12:05:22;95656.16;;;10.89;87.56
70954;BME280;58618;47.490;8.736;2023-04-01T12:08:23;95648.16;;;10.77;88.74
70954;BME280;58618;47.490;8.736;2023-04-01T12:11:16;95630.59;;;11.10;86.27
70954;BME280;58618;47.490;8.736;2023-04-01T12:14:11;95668.31;;;11.19;86.09
70954;BME280;58618;47.490;8.736;2023-04-01T12:17:07;95659.88;;;10.61;93.66
70954;BME280;58618;47.490;8.736;2023-04-01T12:20:01;95654.38;;;10.53;92.89
70954;BME280;58618;47.490;8.736;2023-04-01T12:23:06;95652.13;;;10.38;95.08
70954;BME280;58618;47.490;8.736;2023-04-01T12:26:15;95656.19;;;10.75;89.92
70954;BME280;58618;47.490;8.736;2023-04-01T12:29:21;95650.09;;;10.93;92.65
70954;BME280;58618;47.490;8.736;2023-04-01T12:32:21;95631.03;;;11.03;93.88
70954;BME280;58618;47.490;8.736;2023-04-01T12:35:17;95652.72;;;11.02;94.69
70954;BME280;58618;47.490;8.736;2023-04-01T12:38:16;95648.97;;;10.86;92.36
70954;BME280;58618;47.490;8.736;2023-04-01T12:41:14;95648.88;;;10.46;94.10
70954;BME280;58618;47.490;8.736;2023-04-01T12:44:16;95645.41;;;10.15;95.36
70954;BME280;58618;47.490;8.736;2023-04-01T12:47:19;95665.72;;;10.30;94.31
70954;BME280;58618;47.490;8.736;2023-04-01T12:50:30;95663.94;;;9.90;99.35
70954;BME280;58618;47.490;8.736;2023-04-01T12:53:43;95653.50;;;10.22;97.63
70954;BME280;58618;47.490;8.736;2023-04-01T12:56:42;95644.06;;;10.53;97.40
70954;BME280;58618;47.490;8.736;2023-04-01T12:59:47;95653.09;;;10.87;92.11
70954;BME280;58618;47.490;8.736;2023-04-01T13:02:58;95638.78;;;11.12;91.73
70954;BME280;58618;47.490;8.736;2023-04-01T13:06:19;95633.31;;;11.35;90.82
70954;BME280;58618;47.490;8.736;2023-04-01T13:09:19;95626.41;;;11.62;86.78
70954;BME280;58618;47.490;8.736;2023-04-01T13:12:35;95628.63;;;11.94;86.45
70954;BME280;58618;47.490;8.736;2023-04-01T13:15:32;95633.22;;;12.14;82.26
70954;BME280;58618;47.490;8.736;2023-04-01T13:18:29;95620.47;;;12.26;79.58
70954;BME280;58618;47.490;8.736;2023-04-01T13:21:28;95620.44;;;12.44;79.89
70954;BME280;58618;47.490;8.736;2023-04-01T13:24:28;95614.69;;;12.47;80.52
70954;BME280;58618;47.490;8.736;2023-04-01T13:27:24;95620.25;;;12.75;76.68
70954;BME280;58618;47.490;8.736;2023-04-01T13:30:24;95623.78;;;12.70;77.99
70954;BME280;58618;47.490;8.736;2023-04-01T13:33:17;95631.34;;;12.92;74.77
70954;BME280;58618;47.490;8.736;2023-04-01T13:36:19;95616.38;;;13.06;74.31
70954;BME280;58618;47.490;8.736;2023-04-01T13:39:20;95630.16;;;12.81;74.16
70954;BME280;58618;47.490;8.736;2023-04-01T13:42:16;95632.56;;;12.86;73.30
70954;BME280;58618;47.490;8.736;2023-04-01T13:45:12;95626.34;;;12.87;72.74
70954;BME280;58618;47.490;8.736;2023-04-01T13:48:23;95632.91;;;12.76;72.11
70954;BME280;58618;47.490;8.736;2023-04-01T13:54:49;95622.53;;;12.76;73.86
70954;BME280;58618;47.490;8.736;2023-04-01T13:57:51;95613.91;;;12.63;70.44
70954;BME280;58618;47.490;8.736;2023-04-01T14:00:54;95622.56;;;12.59;73.06
70954;BME280;58618;47.490;8.736;2023-04-01T14:03:59;95618.91;;;12.60;74.99
70954;BME280;58618;47.490;8.736;2023-04-01T14:07:00;95618.31;;;12.63;73.34
70954;BME280;58618;47.490;8.736;2023-04-01T14:10:06;95602.91;;;12.75;72.15
70954;BME280;58618;47.490;8.736;2023-04-01T14:12:59;95611.59;;;12.79;73.40
70954;BME280;58618;47.490;8.736;2023-04-01T14:16:03;95602.81;;;12.46;74.75
70954;BME280;58618;47.490;8.736;2023-04-01T14:19:03;95623.19;;;12.39;74.22
70954;BME280;58618;47.490;8.736;2023-04-01T14:21:59;95615.56;;;12.08;72.84
70954;BME280;58618;47.490;8.736;2023-04-01T14:25:17;95611.91;;;11.83;74.71
70954;BME280;58618;47.490;8.736;2023-04-01T14:28:18;95617.84;;;11.92;76.03
70954;BME280;58618;47.490;8.736;2023-04-01T14:31:23;95613.72;;;11.91;75.11
70954;BME280;58618;47.490;8.736;2023-04-01T14:34:28;95617.06;;;11.83;76.23
70954;BME280;58618;47.490;8.736;2023-04-01T14:37:40;95626.56;;;11.65;77.66
70954;BME280;58618;47.490;8.736;2023-04-01T14:40:48;95622.56;;;11.51;81.80
70954;BME280;58618;47.490;8.736;2023-04-01T14:43:48;95658.78;;;11.28;87.75
70954;BME280;58618;47.490;8.736;2023-04-01T14:47:06;95666.56;;;10.62;89.07
70954;BME280;58618;47.490;8.736;2023-04-01T14:50:05;95672.25;;;9.87;94.65
70954;BME280;58618;47.490;8.736;2023-04-01T14:52:58;95697.81;;;9.56;97.19
70954;BME280;58618;47.490;8.736;2023-04-01T14:55:50;95712.34;;;9.01;100.00
70954;BME280;58618;47.490;8.736;2023-04-01T14:58:44;95686.53;;;8.73;100.00
70954;BME280;58618;47.490;8.736;2023-04-01T15:01:39;95689.69;;;8.70;100.00
70954;BME280;58618;47.490;8.736;2023-04-01T15:04:48;95665.22;;;8.54;100.00
70954;BME280;58618;47.490;8.736;2023-04-01T15:08:01;95665.97;;;8.73;100.00
70954;BME280;58618;47.490;8.736;2023-04-01T15:11:00;95668.75;;;8.58;100.00
70954;BME280;58618;47.490;8.736;2023-04-01T15:14:01;95679.66;;;8.87;100.00
70954;BME280;58618;47.490;8.736;2023-04-01T15:17:02;95683.13;;;8.78;100.00
70954;BME280;58618;47.490;8.736;2023-04-01T15:20:15;95692.41;;;8.60;100.00
70954;BME280;58618;47.490;8.736;2023-04-01T15:23:13;95690.22;;;8.67;100.00
70954;BME280;58618;47.490;8.736;2023-04-01T15:29:50;95667.06;;;8.67;100.00
70954;BME280;58618;47.490;8.736;2023-04-01T15:32:55;95657.06;;;8.84;100.00
70954;BME280;58618;47.490;8.736;2023-04-01T15:35:50;95653.69;;;9.03;100.00
70954;BME280;58618;47.490;8.736;2023-04-01T15:38:48;95664.69;;;8.89;100.00
70954;BME280;58618;47.490;8.736;2023-04-01T15:41:45;95656.09;;;8.80;100.00
70954;BME280;58618;47.490;8.736;2023-04-01T15:44:46;95661.91;;;9.18;100.00
70954;BME280;58618;47.490;8.736;2023-04-01T15:47:39;95670.41;;;9.32;100.00
70954;BME280;58618;47.490;8.736;2023-04-01T15:50:53;95660.78;;;9.38;100.00
70954;BME280;58618;47.490;8.736;2023-04-01T15:53:56;95665.94;;;9.38;100.00
70954;BME280;58618;47.490;8.736;2023-04-01T15:56:54;95646.50;;;9.59;100.00
70954;BME280;58618;47.490;8.736;2023-04-01T16:00:18;95653.47;;;9.72;100.00
70954;BME280;58618;47.490;8.736;2023-04-01T16:03:15;95650.50;;;9.65;100.00
70954;BME280;58618;47.490;8.736;2023-04-01T16:06:21;95656.63;;;9.56;100.00
70954;BME280;58618;47.490;8.736;2023-04-01T16:09:39;95646.69;;;9.77;100.00
70954;BME280;58618;47.490;8.736;2023-04-01T16:12:41;95643.63;;;9.61;100.00
70954;BME280;58618;47.490;8.736;2023-04-01T16:15:38;95639.03;;;9.99;98.96
70954;BME280;58618;47.490;8.736;2023-04-01T16:18:46;95642.66;;;9.98;100.00
70954;BME280;58618;47.490;8.736;2023-04-01T16:21:44;95642.56;;;9.75;100.00
70954;BME280;58618;47.490;8.736;2023-04-01T16:24:35;95645.53;;;9.83;100.00